createdAt,value
2022-11-17T00:02:54.443Z,11.66
2022-11-17T00:05:56.106Z,11.44
2022-11-17T00:08:59.068Z,11.47
2022-11-17T00:12:22.545Z,11.55
2022-11-17T00:15:24.664Z,11.47
2022-11-17T00:18:45.206Z,11.48
2022-11-17T00:21:46.784Z,11.22
2022-11-17T00:24:49.758Z,11.23
2022-11-17T00:27:51.583Z,11.29
2022-11-17T00:31:11.853Z,11.59
2022-11-17T00:34:16.528Z,11.68
2022-11-17T00:37:18.109Z,11.73
2022-11-17T00:40:21.074Z,11.63
2022-11-17T00:43:22.609Z,11.57
2022-11-17T00:46:24.368Z,11.74
2022-11-17T00:49:26.418Z,11.63
2022-11-17T00:52:27.982Z,11.61
2022-11-17T00:55:30.991Z,11.55
2022-11-17T00:58:34.566Z,11.46
2022-11-17T01:01:36.685Z,11.61
2022-11-17T01:04:38.340Z,11.53
2022-11-17T01:07:40.019Z,11.57
2022-11-17T01:10:43.068Z,11.57
2022-11-17T01:13:46.798Z,11.64
2022-11-17T01:16:48.551Z,11.64
2022-11-17T01:19:50.179Z,11.62
2022-11-17T01:22:53.829Z,11.59
2022-11-17T01:26:01.615Z,11.65
2022-11-17T01:29:04.925Z,11.65
2022-11-17T01:32:06.543Z,11.58
2022-11-17T01:35:08.924Z,11.50
2022-11-17T01:38:10.565Z,11.41
2022-11-17T01:41:16.225Z,11.42
2022-11-17T01:44:58.246Z,11.32
2022-11-17T01:48:02.979Z,11.40
2022-11-17T01:51:04.451Z,11.43
2022-11-17T01:54:06.973Z,11.52
2022-11-17T01:57:14.768Z,11.48
2022-11-17T02:00:17.294Z,11.49
2022-11-17T02:03:18.970Z,11.54
2022-11-17T02:06:24.970Z,11.54
2022-11-17T02:09:27.663Z,11.87
2022-11-17T02:12:32.581Z,11.86
2022-11-17T02:15:34.176Z,11.75
2022-11-17T02:18:35.850Z,11.71
2022-11-17T02:22:09.212Z,11.69
2022-11-17T02:25:37.473Z,11.57
2022-11-17T02:28:46.811Z,11.45
2022-11-17T02:31:55.585Z,11.57
2022-11-17T02:35:09.177Z,11.68
2022-11-17T02:38:19.358Z,11.87
2022-11-17T02:41:26.870Z,11.75
2022-11-17T02:44:37.102Z,11.80
2022-11-17T02:47:43.104Z,11.82
2022-11-17T02:50:47.883Z,11.77
2022-11-17T02:53:50.118Z,11.80
2022-11-17T02:56:51.781Z,11.82
2022-11-17T02:59:56.499Z,11.91
2022-11-17T03:03:15.310Z,11.89
2022-11-17T03:06:28.736Z,11.93
2022-11-17T03:09:44.157Z,11.83
2022-11-17T03:12:53.866Z,11.68
2022-11-17T03:16:05.306Z,11.71
2022-11-17T03:19:12.485Z,11.82
2022-11-17T03:22:21.250Z,11.87
2022-11-17T03:25:27.069Z,11.85
2022-11-17T03:28:29.806Z,11.82
2022-11-17T03:31:34.998Z,11.74
2022-11-17T03:34:42.239Z,11.72
2022-11-17T03:37:49.613Z,12.27
2022-11-17T03:40:56.091Z,12.62
2022-11-17T03:44:00.378Z,12.63
2022-11-17T03:47:07.370Z,12.80
2022-11-17T03:50:14.996Z,12.77
2022-11-17T03:53:16.705Z,12.64
2022-11-17T03:56:31.342Z,12.54
2022-11-17T03:59:43.116Z,12.33
2022-11-17T04:02:49.042Z,12.26
2022-11-17T04:05:50.708Z,12.27
2022-11-17T04:08:52.315Z,12.32
2022-11-17T04:12:12.661Z,12.28
2022-11-17T04:15:33.256Z,12.37
2022-11-17T04:18:36.321Z,12.24
2022-11-17T04:21:38.099Z,12.31
2022-11-17T04:24:39.692Z,12.22
2022-11-17T04:27:59.973Z,12.29
2022-11-17T04:31:01.535Z,12.05
2022-11-17T04:34:05.889Z,12.09
2022-11-17T04:37:17.074Z,12.05
2022-11-17T04:40:18.675Z,11.95
2022-11-17T04:43:20.283Z,11.79
2022-11-17T04:46:23.452Z,11.58
2022-11-17T04:49:26.365Z,11.51
2022-11-17T04:52:40.428Z,11.25
2022-11-17T04:55:42.072Z,11.13
2022-11-17T04:58:43.818Z,10.94
2022-11-17T05:01:46.201Z,10.87
2022-11-17T05:04:58.154Z,10.78
2022-11-17T05:08:00.093Z,10.88
2022-11-17T05:11:20.564Z,10.90
2022-11-17T05:14:24.258Z,10.86
2022-11-17T05:17:25.863Z,10.93
2022-11-17T05:20:28.805Z,10.92
2022-11-17T05:23:49.024Z,11.02
2022-11-17T05:26:50.891Z,10.95
2022-11-17T05:29:52.514Z,10.76
2022-11-17T05:32:54.089Z,10.76
2022-11-17T05:35:57.165Z,10.72
2022-11-17T05:38:58.850Z,10.75
2022-11-17T05:42:00.515Z,10.81
2022-11-17T05:45:02.241Z,10.77
2022-11-17T05:48:04.249Z,10.94
2022-11-17T05:51:07.337Z,11.08
2022-11-17T05:54:09.141Z,11.24
2022-11-17T05:57:15.554Z,11.31
2022-11-17T06:00:17.653Z,11.41
2022-11-17T06:03:23.192Z,11.42
2022-11-17T06:06:26.401Z,11.45
2022-11-17T06:09:31.923Z,11.54
2022-11-17T06:12:33.524Z,11.58
2022-11-17T06:15:35.790Z,11.65
2022-11-17T06:18:41.105Z,11.64
2022-11-17T06:22:10.687Z,11.70
2022-11-17T06:25:09.054Z,11.73
2022-11-17T06:28:12.457Z,11.79
2022-11-17T06:31:15.038Z,11.78
2022-11-17T06:34:16.857Z,11.77
2022-11-17T06:37:19.937Z,11.69
2022-11-17T06:40:21.690Z,11.68
2022-11-17T06:43:23.365Z,11.65
2022-11-17T06:46:25.018Z,11.61
2022-11-17T06:49:26.677Z,11.62
2022-11-17T06:52:29.680Z,11.58
2022-11-17T06:55:31.893Z,11.64
2022-11-17T06:58:34.954Z,11.59
2022-11-17T07:01:37.732Z,11.61
2022-11-17T07:04:39.494Z,11.61
2022-11-17T07:07:42.454Z,11.68
2022-11-17T07:10:49.185Z,11.70
2022-11-17T07:13:51.159Z,11.71
2022-11-17T07:16:52.899Z,11.77
2022-11-17T07:19:54.972Z,11.82
2022-11-17T07:23:00.198Z,11.78
2022-11-17T07:26:02.511Z,11.83
2022-11-17T07:29:04.252Z,11.88
2022-11-17T07:32:06.098Z,11.91
2022-11-17T07:35:08.776Z,11.91
2022-11-17T07:38:12.091Z,11.86
2022-11-17T07:41:14.655Z,11.84
2022-11-17T07:44:16.289Z,11.93
2022-11-17T07:47:18.066Z,11.89
2022-11-17T07:50:19.766Z,12.00
2022-11-17T07:53:22.804Z,11.99
2022-11-17T07:56:24.594Z,12.06
2022-11-17T07:59:26.263Z,12.07
2022-11-17T08:02:28.806Z,12.10
2022-11-17T08:05:32.066Z,12.11
2022-11-17T08:08:35.854Z,12.09
2022-11-17T08:11:37.927Z,12.07
2022-11-17T08:14:39.716Z,12.05
2022-11-17T08:17:41.428Z,11.97
2022-11-17T08:20:43.181Z,11.81
2022-11-17T08:23:50.873Z,11.67
2022-11-17T08:26:53.651Z,11.52
2022-11-17T08:29:55.342Z,11.37
2022-11-17T08:32:57.014Z,11.32
2022-11-17T08:35:59.323Z,11.35
2022-11-17T08:39:02.843Z,11.26
2022-11-17T08:42:04.579Z,11.23
2022-11-17T08:45:07.650Z,11.16
2022-11-17T08:48:09.382Z,11.10
2022-11-17T08:51:13.521Z,11.07
2022-11-17T08:54:16.665Z,11.05
2022-11-17T08:57:18.476Z,11.02
2022-11-17T09:00:21.869Z,11.03
2022-11-17T09:03:23.749Z,11.03
2022-11-17T09:06:25.482Z,11.14
2022-11-17T09:09:30.098Z,11.11
2022-11-17T09:12:32.445Z,11.11
2022-11-17T09:15:34.691Z,11.05
2022-11-17T09:18:38.263Z,11.02
2022-11-17T09:21:40.213Z,10.98
2022-11-17T09:24:43.247Z,11.12
2022-11-17T09:27:45.000Z,11.11
2022-11-17T09:30:46.639Z,11.18
2022-11-17T09:33:48.402Z,11.14
2022-11-17T09:36:50.271Z,11.11
2022-11-17T09:39:53.307Z,11.13
2022-11-17T09:42:55.697Z,11.18
2022-11-17T09:46:07.835Z,11.19
2022-11-17T09:49:16.603Z,11.21
2022-11-17T09:52:22.929Z,11.20
2022-11-17T09:55:34.159Z,11.23
2022-11-17T09:58:42.832Z,11.29
2022-11-17T10:01:44.703Z,11.35
2022-11-17T10:04:46.509Z,11.35
2022-11-17T10:07:50.969Z,11.28
2022-11-17T10:10:54.027Z,11.39
2022-11-17T10:13:55.789Z,11.47
2022-11-17T10:16:58.838Z,11.59
2022-11-17T10:20:00.557Z,11.64
2022-11-17T10:23:03.598Z,11.67
2022-11-17T10:26:11.594Z,11.91
2022-11-17T10:29:14.967Z,11.91
2022-11-17T10:32:16.615Z,11.89
2022-11-17T10:35:20.492Z,11.88
2022-11-17T10:38:28.972Z,11.90
2022-11-17T10:41:37.491Z,11.97
2022-11-17T10:44:42.622Z,12.02
2022-11-17T10:47:44.302Z,12.01
2022-11-17T10:50:52.271Z,12.02
2022-11-17T10:54:02.355Z,11.90
2022-11-17T10:57:09.179Z,11.92
2022-11-17T11:00:23.127Z,11.93
2022-11-17T11:03:27.994Z,12.11
2022-11-17T11:06:31.510Z,12.24
2022-11-17T11:09:35.879Z,12.10
2022-11-17T11:12:45.493Z,11.85
2022-11-17T11:15:48.054Z,11.82
2022-11-17T11:18:52.013Z,11.66
2022-11-17T11:22:10.174Z,11.64
2022-11-17T11:25:23.710Z,11.61
2022-11-17T11:28:44.256Z,11.56
2022-11-17T11:31:57.962Z,11.56
2022-11-17T11:35:43.407Z,11.60
2022-11-17T11:38:54.315Z,11.98
2022-11-17T11:42:07.986Z,11.97
2022-11-17T11:45:26.529Z,11.91
2022-11-17T11:48:33.704Z,11.88
2022-11-17T11:51:39.006Z,11.87
2022-11-17T11:54:51.082Z,11.76
2022-11-17T11:58:01.108Z,11.61
2022-11-17T12:01:06.739Z,11.56
2022-11-17T12:04:24.683Z,11.55
2022-11-17T12:07:36.905Z,11.66
2022-11-17T12:10:45.517Z,11.67
2022-11-17T12:13:52.719Z,11.64
2022-11-17T12:17:04.755Z,11.63
2022-11-17T12:20:49.439Z,11.60
2022-11-17T12:24:15.584Z,11.59
2022-11-17T12:27:44.135Z,11.53
2022-11-17T12:30:52.795Z,11.42
2022-11-17T12:34:21.949Z,11.31
2022-11-17T12:37:26.374Z,11.45
2022-11-17T12:40:45.588Z,11.33
2022-11-17T12:43:47.187Z,11.24
2022-11-17T12:47:17.649Z,11.18
2022-11-17T12:50:48.923Z,11.08
2022-11-17T12:54:12.952Z,10.97
2022-11-17T12:57:18.920Z,11.03
2022-11-17T13:00:23.351Z,10.83
2022-11-17T13:03:30.699Z,10.68
2022-11-17T13:06:36.045Z,10.59
2022-11-17T13:09:38.102Z,10.53
2022-11-17T13:12:39.741Z,10.42
2022-11-17T13:15:42.904Z,10.37
2022-11-17T13:18:44.896Z,10.23
2022-11-17T13:21:48.003Z,10.55
2022-11-17T13:24:50.585Z,10.48
2022-11-17T13:27:57.144Z,10.44
2022-11-17T13:31:01.370Z,10.50
2022-11-17T13:34:06.314Z,10.47
2022-11-17T13:37:17.220Z,10.46
2022-11-17T13:40:21.608Z,10.40
2022-11-17T13:43:25.316Z,10.42
2022-11-17T13:46:27.102Z,10.47
2022-11-17T13:49:35.286Z,10.50
2022-11-17T13:55:57.470Z,10.68
2022-11-17T13:59:01.798Z,10.71
2022-11-17T14:02:29.051Z,10.70
2022-11-17T14:05:32.754Z,10.71
2022-11-17T14:08:37.013Z,10.83
2022-11-17T14:11:41.426Z,10.86
2022-11-17T14:14:44.924Z,10.85
2022-11-17T14:17:49.558Z,10.91
2022-11-17T14:21:05.207Z,10.94
2022-11-17T14:24:12.364Z,10.91
2022-11-17T14:27:39.130Z,10.86
2022-11-17T14:30:41.208Z,10.71
2022-11-17T14:33:43.532Z,10.54
2022-11-17T14:36:46.437Z,10.38
2022-11-17T14:39:49.489Z,10.30
2022-11-17T14:42:51.156Z,10.27
2022-11-17T14:45:52.923Z,10.24
2022-11-17T14:48:55.513Z,10.20
2022-11-17T14:51:59.072Z,10.13
2022-11-17T14:55:02.299Z,10.14
2022-11-17T14:58:04.836Z,10.10
2022-11-17T15:01:08.263Z,10.06
2022-11-17T15:04:48.216Z,10.05
2022-11-17T15:07:38.110Z,10.05
2022-11-17T15:10:45.064Z,10.04
2022-11-17T15:13:46.872Z,10.02
2022-11-17T15:16:48.561Z,9.93
2022-11-17T15:19:50.252Z,9.95
2022-11-17T15:22:51.976Z,9.87
2022-11-17T15:25:54.973Z,9.93
2022-11-17T15:28:59.727Z,9.85
2022-11-17T15:32:01.543Z,9.73
2022-11-17T15:35:03.738Z,9.86
2022-11-17T15:38:05.450Z,10.04
2022-11-17T15:41:10.557Z,10.09
2022-11-17T15:44:12.323Z,9.98
2022-11-17T15:47:13.939Z,10.12
2022-11-17T15:50:16.414Z,10.12
2022-11-17T15:53:18.018Z,10.09
2022-11-17T15:56:22.789Z,9.88
2022-11-17T15:59:24.414Z,10.02
2022-11-17T16:02:26.366Z,9.99
2022-11-17T16:05:28.008Z,10.04
2022-11-17T16:08:30.375Z,10.00
2022-11-17T16:11:33.697Z,9.98
2022-11-17T16:14:35.349Z,9.99
2022-11-17T16:17:37.372Z,9.99
2022-11-17T16:20:39.116Z,9.81
2022-11-17T16:23:41.815Z,9.79
2022-11-17T16:26:45.855Z,9.72
2022-11-17T16:29:47.508Z,9.70
2022-11-17T16:32:49.248Z,9.70
2022-11-17T16:35:50.932Z,9.73
2022-11-17T16:39:01.964Z,9.64
2022-11-17T16:42:06.039Z,9.58
2022-11-17T16:45:08.455Z,9.59
2022-11-17T16:48:10.158Z,9.43
2022-11-17T16:51:11.981Z,9.46
2022-11-17T16:54:13.611Z,9.49
2022-11-17T16:57:16.679Z,9.62
2022-11-17T17:00:18.860Z,9.59
2022-11-17T17:03:20.608Z,9.66
2022-11-17T17:06:22.757Z,9.69
2022-11-17T17:09:27.835Z,9.93
2022-11-17T17:12:31.349Z,10.01
2022-11-17T17:15:33.401Z,9.93
2022-11-17T17:18:35.728Z,9.91
2022-11-17T17:21:38.624Z,9.83
2022-11-17T17:24:40.264Z,9.74
2022-11-17T17:27:43.238Z,9.70
2022-11-17T17:30:53.380Z,9.63
2022-11-17T17:33:55.646Z,9.64
2022-11-17T17:36:57.330Z,9.63
2022-11-17T17:39:59.028Z,9.63
2022-11-17T17:43:02.110Z,9.66
2022-11-17T17:46:06.601Z,9.65
2022-11-17T17:49:10.134Z,9.61
2022-11-17T17:52:13.971Z,9.55
2022-11-17T17:55:15.922Z,9.62
2022-11-17T17:58:18.922Z,9.61
2022-11-17T18:01:22.410Z,9.63
2022-11-17T18:04:24.268Z,9.69
2022-11-17T18:07:25.968Z,9.71
2022-11-17T18:10:27.653Z,9.71
2022-11-17T18:13:31.904Z,9.70
2022-11-17T18:16:33.872Z,9.71
2022-11-17T18:19:35.519Z,9.71
2022-11-17T18:22:38.237Z,9.66
2022-11-17T18:25:39.908Z,9.71
2022-11-17T18:28:44.936Z,9.75
2022-11-17T18:31:47.385Z,9.72
2022-11-17T18:34:49.088Z,9.65
2022-11-17T18:37:50.880Z,9.76
2022-11-17T18:41:01.903Z,9.82
2022-11-17T18:44:04.871Z,9.86
2022-11-17T18:47:06.561Z,9.86
2022-11-17T18:50:09.092Z,9.81
2022-11-17T18:53:10.787Z,9.89
2022-11-17T18:56:14.046Z,9.88
2022-11-17T18:59:18.443Z,9.95
2022-11-17T19:02:20.403Z,9.99
2022-11-17T19:05:22.039Z,9.99
2022-11-17T19:08:24.145Z,9.99
2022-11-17T19:11:27.027Z,9.92
2022-11-17T19:14:30.039Z,9.88
2022-11-17T19:17:31.766Z,9.75
2022-11-17T19:20:33.446Z,9.76
2022-11-17T19:23:35.874Z,9.88
2022-11-17T19:26:37.681Z,9.93
2022-11-17T19:29:41.415Z,9.95
2022-11-17T19:32:43.074Z,9.87
2022-11-17T19:35:44.715Z,9.89
2022-11-17T19:38:48.096Z,9.91
2022-11-17T19:41:49.918Z,9.91
2022-11-17T19:44:53.024Z,9.85
2022-11-17T19:47:54.760Z,9.80
2022-11-17T19:50:56.657Z,9.97
2022-11-17T19:54:02.020Z,9.85
2022-11-17T19:57:03.809Z,9.89
2022-11-17T20:00:08.483Z,10.01
2022-11-17T20:03:14.438Z,9.99
2022-11-17T20:06:18.749Z,9.87
2022-11-17T20:09:20.529Z,9.94
2022-11-17T20:12:22.177Z,10.06
2022-11-17T20:15:34.579Z,9.97
2022-11-17T20:18:36.480Z,10.01
2022-11-17T20:21:38.602Z,9.92
2022-11-17T20:24:40.438Z,10.02
2022-11-17T20:27:42.405Z,9.96
2022-11-17T20:30:45.589Z,9.92
2022-11-17T20:33:48.282Z,9.87
2022-11-17T20:36:49.920Z,9.94
2022-11-17T20:39:51.675Z,9.90
2022-11-17T20:42:53.293Z,9.95
2022-11-17T20:45:57.186Z,10.03
2022-11-17T20:48:59.050Z,9.94
2022-11-17T20:52:00.704Z,10.08
2022-11-17T20:55:02.500Z,10.11
2022-11-17T20:58:04.215Z,10.06
2022-11-17T21:01:08.613Z,10.02
2022-11-17T21:04:10.661Z,10.06
2022-11-17T21:07:12.457Z,10.10
2022-11-17T21:10:14.280Z,10.15
2022-11-17T21:13:15.957Z,10.06
2022-11-17T21:16:18.983Z,10.10
2022-11-17T21:19:21.687Z,10.05
2022-11-17T21:22:23.359Z,10.06
2022-11-17T21:25:25.607Z,10.06
2022-11-17T21:28:27.314Z,9.94
2022-11-17T21:31:32.020Z,9.91
2022-11-17T21:34:33.803Z,9.86
2022-11-17T21:37:35.781Z,9.87
2022-11-17T21:40:37.537Z,9.87
2022-11-17T21:43:40.452Z,9.96
2022-11-17T21:46:43.477Z,10.00
2022-11-17T21:49:45.213Z,10.01
2022-11-17T21:52:46.954Z,10.06
2022-11-17T21:55:49.338Z,10.04
2022-11-17T21:58:53.730Z,10.00
2022-11-17T22:01:56.685Z,10.06
2022-11-17T22:04:58.294Z,10.01
2022-11-17T22:08:00.049Z,10.03
2022-11-17T22:11:03.697Z,10.00
2022-11-17T22:14:08.074Z,9.94
2022-11-17T22:17:11.207Z,9.88
2022-11-17T22:20:12.828Z,9.83
2022-11-17T22:23:14.508Z,9.83
2022-11-17T22:26:16.145Z,9.82
2022-11-17T22:29:20.160Z,9.79
2022-11-17T22:32:23.413Z,9.80
2022-11-17T22:35:25.089Z,9.73
2022-11-17T22:38:30.842Z,9.78
2022-11-17T22:41:32.555Z,9.75
2022-11-17T22:44:34.218Z,9.72
2022-11-17T22:47:37.274Z,9.73
2022-11-17T22:50:39.025Z,9.74
2022-11-17T22:53:40.707Z,9.64
2022-11-17T22:56:42.710Z,9.62
2022-11-17T22:59:44.377Z,9.64
2022-11-17T23:02:47.386Z,9.61
2022-11-17T23:05:49.026Z,9.48
2022-11-17T23:08:50.821Z,9.35
2022-11-17T23:11:52.463Z,9.39
2022-11-17T23:14:54.140Z,9.29
2022-11-17T23:17:57.124Z,9.31
2022-11-17T23:21:03.183Z,9.42
2022-11-17T23:24:05.591Z,9.40
2022-11-17T23:27:07.199Z,9.37
2022-11-17T23:30:10.093Z,9.40
2022-11-17T23:33:13.180Z,9.35
2022-11-17T23:36:16.714Z,9.27
2022-11-17T23:39:18.731Z,9.28
2022-11-17T23:42:21.044Z,9.30
2022-11-17T23:45:22.768Z,9.31
2022-11-17T23:48:25.782Z,9.27
2022-11-17T23:51:29.777Z,9.27
2022-11-17T23:54:31.523Z,9.14
2022-11-17T23:57:33.259Z,9.16
